sensor_id;sensor_type;location;lat;lon;timestamp;pressure;altitude;pressure_sealevel;temperature;humidity
72925;BME280;61070;50.794;7.054;2022-10-31T00:01:00;101440.41;;;11.77;100.00
72925;BME280;61070;50.794;7.054;2022-10-31T00:03:26;101442.19;;;11.76;100.00
72925;BME280;61070;50.794;7.054;2022-10-31T00:05:51;101446.63;;;11.73;100.00
72925;BME280;61070;50.794;7.054;2022-10-31T00:08:18;101448.41;;;11.71;100.00
72925;BME280;61070;50.794;7.054;2022-10-31T00:10:44;101451.09;;;11.68;100.00
72925;BME280;61070;50.794;7.054;2022-10-31T00:13:11;101454.63;;;11.63;100.00
72925;BME280;61070;50.794;7.054;2022-10-31T00:15:38;101461.69;;;11.64;100.00
72925;BME280;61070;50.794;7.054;2022-10-31T00:18:04;101457.31;;;11.59;100.00
72925;BME280;61070;50.794;7.054;2022-10-31T00:20:30;101459.09;;;11.60;100.00
72925;BME280;61070;50.794;7.054;2022-10-31T00:22:59;101465.28;;;11.60;100.00
72925;BME280;61070;50.794;7.054;2022-10-31T00:25:26;101474.09;;;11.62;100.00
72925;BME280;61070;50.794;7.054;2022-10-31T00:27:51;101464.38;;;11.63;100.00
72925;BME280;61070;50.794;7.054;2022-10-31T00:30:16;101467.91;;;11.62;100.00
72925;BME280;61070;50.794;7.054;2022-10-31T00:32:42;101456.41;;;11.61;100.00
72925;BME280;61070;50.794;7.054;2022-10-31T00:35:07;101451.97;;;11.71;100.00
72925;BME280;61070;50.794;7.054;2022-10-31T00:37:32;101451.97;;;11.70;100.00
72925;BME280;61070;50.794;7.054;2022-10-31T00:39:58;101456.34;;;11.75;100.00
72925;BME280;61070;50.794;7.054;2022-10-31T00:42:23;101471.38;;;11.76;100.00
72925;BME280;61070;50.794;7.054;2022-10-31T00:44:48;101467.84;;;11.77;100.00
72925;BME280;61070;50.794;7.054;2022-10-31T00:47:13;101476.69;;;11.76;100.00
72925;BME280;61070;50.794;7.054;2022-10-31T00:49:39;101482.91;;;11.75;100.00
72925;BME280;61070;50.794;7.054;2022-10-31T00:52:04;101482.88;;;11.77;100.00
72925;BME280;61070;50.794;7.054;2022-10-31T00:54:29;101485.53;;;11.77;100.00
72925;BME280;61070;50.794;7.054;2022-10-31T00:56:56;101482.03;;;11.79;100.00
72925;BME280;61070;50.794;7.054;2022-10-31T00:59:21;101482.00;;;11.78;100.00
72925;BME280;61070;50.794;7.054;2022-10-31T01:01:47;101484.66;;;11.75;100.00
72925;BME280;61070;50.794;7.054;2022-10-31T01:04:12;101462.56;;;11.71;100.00
72925;BME280;61070;50.794;7.054;2022-10-31T01:06:37;101460.81;;;11.69;100.00
72925;BME280;61070;50.794;7.054;2022-10-31T01:09:03;101447.56;;;11.61;100.00
72925;BME280;61070;50.794;7.054;2022-10-31T01:11:28;101451.13;;;11.60;100.00
72925;BME280;61070;50.794;7.054;2022-10-31T01:13:53;101442.31;;;11.50;100.00
72925;BME280;61070;50.794;7.054;2022-10-31T01:16:21;101446.75;;;11.44;100.00
72925;BME280;61070;50.794;7.054;2022-10-31T01:18:47;101437.94;;;11.37;100.00
72925;BME280;61070;50.794;7.054;2022-10-31T01:21:21;101444.13;;;11.36;100.00
72925;BME280;61070;50.794;7.054;2022-10-31T01:23:46;101448.53;;;11.32;100.00
72925;BME280;61070;50.794;7.054;2022-10-31T01:26:13;101441.47;;;11.31;100.00
72925;BME280;61070;50.794;7.054;2022-10-31T01:28:50;101438.84;;;11.30;100.00
72925;BME280;61070;50.794;7.054;2022-10-31T01:31:17;101435.28;;;11.32;100.00
72925;BME280;61070;50.794;7.054;2022-10-31T01:33:43;101437.06;;;11.32;100.00
72925;BME280;61070;50.794;7.054;2022-10-31T01:38:40;101443.25;;;11.32;100.00
72925;BME280;61070;50.794;7.054;2022-10-31T01:41:05;101440.59;;;11.34;100.00
72925;BME280;61070;50.794;7.054;2022-10-31T01:43:49;101430.00;;;11.34;100.00
72925;BME280;61070;50.794;7.054;2022-10-31T01:46:17;101434.44;;;11.33;100.00
72925;BME280;61070;50.794;7.054;2022-10-31T01:48:45;101430.00;;;11.35;100.00
72925;BME280;61070;50.794;7.054;2022-10-31T01:51:13;101431.75;;;11.36;100.00
72925;BME280;61070;50.794;7.054;2022-10-31T01:53:42;101422.88;;;11.41;100.00
72925;BME280;61070;50.794;7.054;2022-10-31T01:56:08;101425.50;;;11.44;100.00
72925;BME280;61070;50.794;7.054;2022-10-31T01:58:34;101411.44;;;11.34;100.00
72925;BME280;61070;50.794;7.054;2022-10-31T02:01:02;101407.00;;;11.36;100.00
72925;BME280;61070;50.794;7.054;2022-10-31T02:03:28;101413.16;;;11.43;100.00
72925;BME280;61070;50.794;7.054;2022-10-31T02:05:55;101417.59;;;11.37;100.00
72925;BME280;61070;50.794;7.054;2022-10-31T02:08:26;101415.84;;;11.32;100.00
72925;BME280;61070;50.794;7.054;2022-10-31T02:10:52;101424.72;;;11.25;100.00
72925;BME280;61070;50.794;7.054;2022-10-31T02:13:19;101422.06;;;11.25;100.00
72925;BME280;61070;50.794;7.054;2022-10-31T02:15:47;101423.84;;;11.18;100.00
72925;BME280;61070;50.794;7.054;2022-10-31T02:18:14;101424.72;;;11.17;100.00
72925;BME280;61070;50.794;7.054;2022-10-31T02:23:31;101426.50;;;11.15;100.00
72925;BME280;61070;50.794;7.054;2022-10-31T02:26:22;101428.28;;;11.16;100.00
72925;BME280;61070;50.794;7.054;2022-10-31T02:29:37;101434.47;;;11.15;100.00
72925;BME280;61070;50.794;7.054;2022-10-31T02:32:22;101431.81;;;11.15;100.00
72925;BME280;61070;50.794;7.054;2022-10-31T02:35:35;101430.06;;;11.14;100.00
72925;BME280;61070;50.794;7.054;2022-10-31T02:38:26;101430.06;;;11.13;100.00
72925;BME280;61070;50.794;7.054;2022-10-31T02:43:38;101436.25;;;11.13;100.00
72925;BME280;61070;50.794;7.054;2022-10-31T02:48:42;101432.72;;;11.11;100.00
72925;BME280;61070;50.794;7.054;2022-10-31T02:51:09;101431.81;;;11.09;100.00
72925;BME280;61070;50.794;7.054;2022-10-31T02:53:37;101423.88;;;11.11;100.00
72925;BME280;61070;50.794;7.054;2022-10-31T02:56:13;101430.06;;;11.11;100.00
72925;BME280;61070;50.794;7.054;2022-10-31T02:58:51;101440.66;;;11.14;100.00
72925;BME280;61070;50.794;7.054;2022-10-31T03:06:19;101442.41;;;11.21;100.00
72925;BME280;61070;50.794;7.054;2022-10-31T03:08:55;101440.66;;;11.14;100.00
72925;BME280;61070;50.794;7.054;2022-10-31T03:11:29;101439.78;;;11.15;100.00
72925;BME280;61070;50.794;7.054;2022-10-31T03:14:36;101442.41;;;11.15;100.00
72925;BME280;61070;50.794;7.054;2022-10-31T03:17:06;101436.25;;;11.12;100.00
72925;BME280;61070;50.794;7.054;2022-10-31T03:19:39;101436.25;;;11.04;100.00
72925;BME280;61070;50.794;7.054;2022-10-31T03:22:21;101438.91;;;11.05;100.00
72925;BME280;61070;50.794;7.054;2022-10-31T03:24:48;101442.44;;;11.07;100.00
72925;BME280;61070;50.794;7.054;2022-10-31T03:27:16;101447.72;;;11.06;100.00
72925;BME280;61070;50.794;7.054;2022-10-31T03:29:44;101443.34;;;11.02;100.00
72925;BME280;61070;50.794;7.054;2022-10-31T03:32:14;101442.47;;;11.00;100.00
72925;BME280;61070;50.794;7.054;2022-10-31T03:34:43;101437.16;;;11.03;100.00
72925;BME280;61070;50.794;7.054;2022-10-31T03:37:11;101441.56;;;11.01;100.00
72925;BME280;61070;50.794;7.054;2022-10-31T03:39:40;101430.94;;;10.98;100.00
72925;BME280;61070;50.794;7.054;2022-10-31T03:42:14;101438.03;;;10.94;100.00
72925;BME280;61070;50.794;7.054;2022-10-31T03:44:44;101436.25;;;10.95;100.00
72925;BME280;61070;50.794;7.054;2022-10-31T03:47:12;101435.41;;;10.90;100.00
72925;BME280;61070;50.794;7.054;2022-10-31T03:49:38;101441.56;;;10.86;100.00
72925;BME280;61070;50.794;7.054;2022-10-31T03:52:22;101438.03;;;10.85;100.00
72925;BME280;61070;50.794;7.054;2022-10-31T03:55:06;101449.53;;;10.79;100.00
72925;BME280;61070;50.794;7.054;2022-10-31T03:58:04;101442.47;;;10.75;100.00
72925;BME280;61070;50.794;7.054;2022-10-31T04:00:33;101438.06;;;10.76;100.00
72925;BME280;61070;50.794;7.054;2022-10-31T04:03:05;101439.81;;;10.72;100.00
72925;BME280;61070;50.794;7.054;2022-10-31T04:05:33;101423.94;;;10.72;100.00
72925;BME280;61070;50.794;7.054;2022-10-31T04:08:01;101435.41;;;10.68;100.00
72925;BME280;61070;50.794;7.054;2022-10-31T04:10:28;101428.34;;;10.72;100.00
72925;BME280;61070;50.794;7.054;2022-10-31T04:12:58;101427.47;;;10.68;100.00
72925;BME280;61070;50.794;7.054;2022-10-31T04:15:26;101415.09;;;10.67;100.00
72925;BME280;61070;50.794;7.054;2022-10-31T04:17:53;101420.41;;;10.58;100.00
72925;BME280;61070;50.794;7.054;2022-10-31T04:20:47;101422.16;;;10.59;100.00
72925;BME280;61070;50.794;7.054;2022-10-31T04:23:25;101435.41;;;10.61;100.00
72925;BME280;61070;50.794;7.054;2022-10-31T04:25:50;101431.88;;;10.62;100.00
72925;BME280;61070;50.794;7.054;2022-10-31T04:28:16;101437.19;;;10.62;100.00
72925;BME280;61070;50.794;7.054;2022-10-31T04:30:41;101431.91;;;10.56;100.00
72925;BME280;61070;50.794;7.054;2022-10-31T04:33:06;101431.91;;;10.54;100.00
72925;BME280;61070;50.794;7.054;2022-10-31T04:35:31;101430.13;;;10.50;100.00
72925;BME280;61070;50.794;7.054;2022-10-31T04:37:57;101431.88;;;10.51;100.00
72925;BME280;61070;50.794;7.054;2022-10-31T04:40:22;101420.41;;;10.55;100.00
72925;BME280;61070;50.794;7.054;2022-10-31T04:42:47;101415.09;;;10.63;100.00
72925;BME280;61070;50.794;7.054;2022-10-31T04:45:13;101419.50;;;10.53;100.00
72925;BME280;61070;50.794;7.054;2022-10-31T04:47:38;101415.97;;;10.51;100.00
72925;BME280;61070;50.794;7.054;2022-10-31T04:50:04;101408.03;;;10.53;100.00
72925;BME280;61070;50.794;7.054;2022-10-31T04:52:29;101400.09;;;10.57;100.00
72925;BME280;61070;50.794;7.054;2022-10-31T04:54:54;101408.94;;;10.48;100.00
72925;BME280;61070;50.794;7.054;2022-10-31T04:57:20;101408.94;;;10.47;100.00
72925;BME280;61070;50.794;7.054;2022-10-31T04:59:45;101408.06;;;10.45;100.00
72925;BME280;61070;50.794;7.054;2022-10-31T05:02:10;101408.03;;;10.40;100.00
72925;BME280;61070;50.794;7.054;2022-10-31T05:04:36;101409.78;;;10.41;100.00
72925;BME280;61070;50.794;7.054;2022-10-31T05:07:01;101398.34;;;10.42;100.00
72925;BME280;61070;50.794;7.054;2022-10-31T05:09:26;101396.56;;;10.41;100.00
72925;BME280;61070;50.794;7.054;2022-10-31T05:11:51;101391.25;;;10.41;100.00
72925;BME280;61070;50.794;7.054;2022-10-31T05:14:17;101393.03;;;10.38;100.00
72925;BME280;61070;50.794;7.054;2022-10-31T05:16:42;101394.81;;;10.36;100.00
72925;BME280;61070;50.794;7.054;2022-10-31T05:19:07;101390.38;;;10.36;100.00
72925;BME280;61070;50.794;7.054;2022-10-31T05:21:33;101399.22;;;10.37;100.00
72925;BME280;61070;50.794;7.054;2022-10-31T05:23:58;101399.22;;;10.37;100.00
72925;BME280;61070;50.794;7.054;2022-10-31T05:26:23;101398.34;;;10.36;100.00
72925;BME280;61070;50.794;7.054;2022-10-31T05:28:49;101387.75;;;10.33;100.00
72925;BME280;61070;50.794;7.054;2022-10-31T05:31:14;101392.16;;;10.31;100.00
72925;BME280;61070;50.794;7.054;2022-10-31T05:33:39;101388.63;;;10.31;100.00
72925;BME280;61070;50.794;7.054;2022-10-31T05:36:05;101393.94;;;10.32;100.00
72925;BME280;61070;50.794;7.054;2022-10-31T05:38:30;101395.66;;;10.30;100.00
72925;BME280;61070;50.794;7.054;2022-10-31T05:40:56;101387.75;;;10.26;100.00
72925;BME280;61070;50.794;7.054;2022-10-31T05:43:23;101394.81;;;10.24;100.00
72925;BME280;61070;50.794;7.054;2022-10-31T05:45:52;101390.38;;;10.23;100.00
72925;BME280;61070;50.794;7.054;2022-10-31T05:48:17;101385.91;;;10.18;100.00
72925;BME280;61070;50.794;7.054;2022-10-31T05:50:43;101384.16;;;10.19;100.00
72925;BME280;61070;50.794;7.054;2022-10-31T05:53:08;101383.28;;;10.15;100.00
72925;BME280;61070;50.794;7.054;2022-10-31T05:55:33;101376.22;;;10.14;100.00
72925;BME280;61070;50.794;7.054;2022-10-31T05:57:59;101381.53;;;10.13;100.00
72925;BME280;61070;50.794;7.054;2022-10-31T06:00:25;101372.69;;;10.14;100.00
72925;BME280;61070;50.794;7.054;2022-10-31T06:03:04;101371.81;;;10.16;100.00
72925;BME280;61070;50.794;7.054;2022-10-31T06:05:30;101378.84;;;10.19;100.00
72925;BME280;61070;50.794;7.054;2022-10-31T06:07:56;101369.16;;;10.16;100.00
72925;BME280;61070;50.794;7.054;2022-10-31T06:10:21;101378.00;;;10.12;100.00
72925;BME280;61070;50.794;7.054;2022-10-31T06:12:47;101379.75;;;10.13;100.00
72925;BME280;61070;50.794;7.054;2022-10-31T06:15:13;101377.09;;;10.06;100.00
72925;BME280;61070;50.794;7.054;2022-10-31T06:17:38;101378.84;;;10.05;100.00
72925;BME280;61070;50.794;7.054;2022-10-31T06:20:04;101377.97;;;10.06;100.00
72925;BME280;61070;50.794;7.054;2022-10-31T06:22:30;101387.66;;;10.07;100.00
72925;BME280;61070;50.794;7.054;2022-10-31T06:24:56;101384.16;;;10.02;100.00
72925;BME280;61070;50.794;7.054;2022-10-31T06:27:21;101382.38;;;10.03;100.00
72925;BME280;61070;50.794;7.054;2022-10-31T06:29:47;101387.69;;;10.06;100.00
72925;BME280;61070;50.794;7.054;2022-10-31T06:32:12;101388.56;;;10.03;100.00
72925;BME280;61070;50.794;7.054;2022-10-31T06:34:38;101383.28;;;10.00;100.00
72925;BME280;61070;50.794;7.054;2022-10-31T06:37:06;101392.97;;;10.01;100.00
72925;BME280;61070;50.794;7.054;2022-10-31T06:39:32;101383.28;;;9.97;100.00
72925;BME280;61070;50.794;7.054;2022-10-31T06:41:57;101387.69;;;10.00;100.00
72925;BME280;61070;50.794;7.054;2022-10-31T06:44:22;101381.50;;;10.02;100.00
72925;BME280;61070;50.794;7.054;2022-10-31T06:46:48;101375.34;;;10.02;100.00
72925;BME280;61070;50.794;7.054;2022-10-31T06:49:13;101370.94;;;10.08;100.00
72925;BME280;61070;50.794;7.054;2022-10-31T06:51:38;101366.50;;;10.07;100.00
72925;BME280;61070;50.794;7.054;2022-10-31T06:54:03;101370.06;;;10.09;100.00
72925;BME280;61070;50.794;7.054;2022-10-31T06:56:29;101379.75;;;10.18;100.00
72925;BME280;61070;50.794;7.054;2022-10-31T06:58:54;101375.38;;;10.22;100.00
72925;BME280;61070;50.794;7.054;2022-10-31T07:01:19;101369.19;;;10.26;100.00
72925;BME280;61070;50.794;7.054;2022-10-31T07:03:45;101360.38;;;10.28;100.00
72925;BME280;61070;50.794;7.054;2022-10-31T07:06:10;101378.03;;;10.32;100.00
72925;BME280;61070;50.794;7.054;2022-10-31T07:08:35;101380.69;;;10.32;100.00
72925;BME280;61070;50.794;7.054;2022-10-31T07:11:00;101384.22;;;10.34;100.00
72925;BME280;61070;50.794;7.054;2022-10-31T07:13:26;101382.44;;;10.47;100.00
72925;BME280;61070;50.794;7.054;2022-10-31T07:15:55;101384.22;;;10.43;100.00
72925;BME280;61070;50.794;7.054;2022-10-31T07:18:23;101387.75;;;10.47;100.00
72925;BME280;61070;50.794;7.054;2022-10-31T07:20:49;101391.25;;;10.52;100.00
72925;BME280;61070;50.794;7.054;2022-10-31T07:23:14;101380.69;;;10.54;100.00
72925;BME280;61070;50.794;7.054;2022-10-31T07:25:40;101388.63;;;10.60;100.00
72925;BME280;61070;50.794;7.054;2022-10-31T07:28:06;101391.25;;;10.64;100.00
72925;BME280;61070;50.794;7.054;2022-10-31T07:30:31;101388.59;;;10.70;100.00
72925;BME280;61070;50.794;7.054;2022-10-31T07:32:57;101391.22;;;10.75;100.00
72925;BME280;61070;50.794;7.054;2022-10-31T07:35:24;101389.47;;;10.75;100.00
72925;BME280;61070;50.794;7.054;2022-10-31T07:37:50;101385.06;;;10.81;100.00
72925;BME280;61070;50.794;7.054;2022-10-31T07:40:16;101389.44;;;10.95;100.00
72925;BME280;61070;50.794;7.054;2022-10-31T07:42:44;101395.59;;;11.05;100.00
72925;BME280;61070;50.794;7.054;2022-10-31T07:45:11;101397.38;;;11.00;100.00
72925;BME280;61070;50.794;7.054;2022-10-31T07:47:47;101392.97;;;10.94;100.00
72925;BME280;61070;50.794;7.054;2022-10-31T07:50:18;101390.31;;;11.02;100.00
72925;BME280;61070;50.794;7.054;2022-10-31T07:52:43;101404.41;;;11.07;100.00
72925;BME280;61070;50.794;7.054;2022-10-31T07:55:09;101406.19;;;11.08;100.00
72925;BME280;61070;50.794;7.054;2022-10-31T07:57:35;101415.00;;;11.16;100.00
72925;BME280;61070;50.794;7.054;2022-10-31T08:00:05;101408.81;;;11.25;100.00
72925;BME280;61070;50.794;7.054;2022-10-31T08:02:31;101411.41;;;11.35;100.00
72925;BME280;61070;50.794;7.054;2022-10-31T08:04:57;101408.75;;;11.37;100.00
72925;BME280;61070;50.794;7.054;2022-10-31T08:07:22;101407.84;;;11.47;100.00
72925;BME280;61070;50.794;7.054;2022-10-31T08:09:47;101410.44;;;11.58;100.00
72925;BME280;61070;50.794;7.054;2022-10-31T08:12:12;101404.25;;;11.57;100.00
72925;BME280;61070;50.794;7.054;2022-10-31T08:14:38;101405.13;;;11.59;100.00
72925;BME280;61070;50.794;7.054;2022-10-31T08:17:03;101402.47;;;11.58;100.00
72925;BME280;61070;50.794;7.054;2022-10-31T08:19:28;101402.44;;;11.64;100.00
72925;BME280;61070;50.794;7.054;2022-10-31T08:21:54;101408.59;;;11.74;100.00
72925;BME280;61070;50.794;7.054;2022-10-31T08:24:20;101395.31;;;11.81;99.75
72925;BME280;61070;50.794;7.054;2022-10-31T08:26:46;101399.72;;;11.84;100.00
72925;BME280;61070;50.794;7.054;2022-10-31T08:29:11;101397.03;;;11.88;99.64
72925;BME280;61070;50.794;7.054;2022-10-31T08:31:36;101395.25;;;11.93;99.39
72925;BME280;61070;50.794;7.054;2022-10-31T08:34:02;101388.13;;;12.02;99.27
72925;BME280;61070;50.794;7.054;2022-10-31T08:36:28;101383.66;;;12.04;99.66
72925;BME280;61070;50.794;7.054;2022-10-31T08:38:53;101387.16;;;12.09;98.86
72925;BME280;61070;50.794;7.054;2022-10-31T08:41:19;101379.19;;;12.12;99.57
72925;BME280;61070;50.794;7.054;2022-10-31T08:43:45;101378.25;;;12.16;99.04
72925;BME280;61070;50.794;7.054;2022-10-31T08:46:10;101380.88;;;12.20;98.99
72925;BME280;61070;50.794;7.054;2022-10-31T08:48:36;101369.34;;;12.26;99.32
72925;BME280;61070;50.794;7.054;2022-10-31T08:51:01;101370.19;;;12.28;99.13
72925;BME280;61070;50.794;7.054;2022-10-31T08:53:27;101368.31;;;12.42;98.32
72925;BME280;61070;50.794;7.054;2022-10-31T08:55:54;101370.06;;;12.42;98.12
72925;BME280;61070;50.794;7.054;2022-10-31T08:58:21;101367.41;;;12.42;97.60
72925;BME280;61070;50.794;7.054;2022-10-31T09:00:49;101375.41;;;12.42;97.52
72925;BME280;61070;50.794;7.054;2022-10-31T09:03:25;101377.09;;;12.50;96.83
72925;BME280;61070;50.794;7.054;2022-10-31T09:05:56;101374.38;;;12.58;96.31
72925;BME280;61070;50.794;7.054;2022-10-31T09:08:22;101369.06;;;12.55;96.90
72925;BME280;61070;50.794;7.054;2022-10-31T09:10:47;101376.00;;;12.71;96.82
72925;BME280;61070;50.794;7.054;2022-10-31T09:13:15;101370.72;;;12.67;96.34
72925;BME280;61070;50.794;7.054;2022-10-31T09:15:44;101369.66;;;12.86;96.01
72925;BME280;61070;50.794;7.054;2022-10-31T09:18:10;101359.91;;;12.87;96.09
72925;BME280;61070;50.794;7.054;2022-10-31T09:20:37;101366.03;;;12.93;96.57
72925;BME280;61070;50.794;7.054;2022-10-31T09:23:09;101360.63;;;13.02;95.32
72925;BME280;61070;50.794;7.054;2022-10-31T09:25:35;101358.75;;;13.10;95.12
72925;BME280;61070;50.794;7.054;2022-10-31T09:28:02;101354.22;;;13.20;94.86
72925;BME280;61070;50.794;7.054;2022-10-31T09:30:29;101347.09;;;13.22;93.70
72925;BME280;61070;50.794;7.054;2022-10-31T09:32:56;101340.75;;;13.34;93.44
72925;BME280;61070;50.794;7.054;2022-10-31T09:35:22;101349.44;;;13.48;93.18
72925;BME280;61070;50.794;7.054;2022-10-31T09:37:56;101339.56;;;13.56;93.12
72925;BME280;61070;50.794;7.054;2022-10-31T09:40:24;101337.69;;;13.64;92.08
72925;BME280;61070;50.794;7.054;2022-10-31T09:51:11;101321.97;;;14.03;90.20
72925;BME280;61070;50.794;7.054;2022-10-31T09:53:46;101312.91;;;14.16;90.33
72925;BME280;61070;50.794;7.054;2022-10-31T09:56:16;101307.72;;;14.07;90.54
72925;BME280;61070;50.794;7.054;2022-10-31T09:58:49;101307.53;;;14.19;90.54
72925;BME280;61070;50.794;7.054;2022-10-31T10:04:05;101299.38;;;14.28;89.95
72925;BME280;61070;50.794;7.054;2022-10-31T10:06:35;101305.41;;;14.37;89.83
72925;BME280;61070;50.794;7.054;2022-10-31T10:09:05;101304.41;;;14.45;89.30
72925;BME280;61070;50.794;7.054;2022-10-31T10:12:03;101296.38;;;14.47;89.47
72925;BME280;61070;50.794;7.054;2022-10-31T10:14:49;101289.25;;;14.49;88.79
72925;BME280;61070;50.794;7.054;2022-10-31T10:17:35;101283.75;;;14.58;89.15
72925;BME280;61070;50.794;7.054;2022-10-31T10:20:21;101281.97;;;14.57;88.29
72925;BME280;61070;50.794;7.054;2022-10-31T10:23:26;101278.41;;;14.58;89.37
72925;BME280;61070;50.794;7.054;2022-10-31T10:26:01;101270.31;;;14.64;88.16
72925;BME280;61070;50.794;7.054;2022-10-31T10:28:35;101274.59;;;14.71;88.15
72925;BME280;61070;50.794;7.054;2022-10-31T10:31:13;101279.25;;;14.62;88.28
72925;BME280;61070;50.794;7.054;2022-10-31T10:33:44;101265.91;;;14.60;88.04
72925;BME280;61070;50.794;7.054;2022-10-31T10:36:15;101256.84;;;14.70;88.35
72925;BME280;61070;50.794;7.054;2022-10-31T10:38:51;101259.31;;;14.79;88.32
72925;BME280;61070;50.794;7.054;2022-10-31T10:41:23;101260.97;;;14.87;86.56
72925;BME280;61070;50.794;7.054;2022-10-31T10:43:51;101247.47;;;14.93;85.93
72925;BME280;61070;50.794;7.054;2022-10-31T10:46:26;101248.47;;;14.89;86.67
72925;BME280;61070;50.794;7.054;2022-10-31T10:49:28;101243.63;;;15.06;86.18
72925;BME280;61070;50.794;7.054;2022-10-31T10:51:59;101244.28;;;15.17;86.25
72925;BME280;61070;50.794;7.054;2022-10-31T10:54:42;101248.38;;;15.33;85.39
72925;BME280;61070;50.794;7.054;2022-10-31T10:59:51;101247.06;;;15.51;83.92
72925;BME280;61070;50.794;7.054;2022-10-31T11:02:23;101251.34;;;15.60;84.01
72925;BME280;61070;50.794;7.054;2022-10-31T11:04:51;101243.00;;;15.73;83.66
72925;BME280;61070;50.794;7.054;2022-10-31T11:07:17;101232.09;;;15.83;82.58
72925;BME280;61070;50.794;7.054;2022-10-31T11:09:43;101226.53;;;15.92;81.85
72925;BME280;61070;50.794;7.054;2022-10-31T11:12:30;101225.78;;;15.87;82.87
72925;BME280;61070;50.794;7.054;2022-10-31T11:14:59;101213.94;;;15.95;82.91
72925;BME280;61070;50.794;7.054;2022-10-31T11:17:32;101211.88;;;16.07;82.09
72925;BME280;61070;50.794;7.054;2022-10-31T11:20:05;101222.69;;;16.02;82.45
72925;BME280;61070;50.794;7.054;2022-10-31T11:22:31;101215.66;;;15.99;82.62
72925;BME280;61070;50.794;7.054;2022-10-31T11:24:56;101215.69;;;15.98;82.25
72925;BME280;61070;50.794;7.054;2022-10-31T11:27:23;101212.06;;;16.00;82.65
72925;BME280;61070;50.794;7.054;2022-10-31T11:29:50;101208.97;;;16.16;82.63
72925;BME280;61070;50.794;7.054;2022-10-31T11:32:23;101191.03;;;16.21;83.14
72925;BME280;61070;50.794;7.054;2022-10-31T11:34:54;101190.75;;;16.30;82.43
72925;BME280;61070;50.794;7.054;2022-10-31T11:37:25;101188.75;;;16.38;82.06
72925;BME280;61070;50.794;7.054;2022-10-31T11:39:56;101180.13;;;16.27;82.77
72925;BME280;61070;50.794;7.054;2022-10-31T11:42:25;101177.25;;;16.35;82.49
72925;BME280;61070;50.794;7.054;2022-10-31T11:44:53;101171.91;;;16.35;82.92
72925;BME280;61070;50.794;7.054;2022-10-31T11:47:28;101168.53;;;16.28;83.50
72925;BME280;61070;50.794;7.054;2022-10-31T11:49:54;101161.38;;;16.28;82.96
72925;BME280;61070;50.794;7.054;2022-10-31T11:52:24;101163.31;;;16.23;84.05
72925;BME280;61070;50.794;7.054;2022-10-31T11:54:54;101151.56;;;16.29;84.00
72925;BME280;61070;50.794;7.054;2022-10-31T11:57:30;101140.03;;;16.27;84.30
72925;BME280;61070;50.794;7.054;2022-10-31T11:59:58;101142.56;;;16.33;84.91
72925;BME280;61070;50.794;7.054;2022-10-31T12:02:25;101142.34;;;16.39;84.73
72925;BME280;61070;50.794;7.054;2022-10-31T12:05:06;101144.97;;;16.42;84.63
72925;BME280;61070;50.794;7.054;2022-10-31T12:07:33;101137.81;;;16.43;84.37
72925;BME280;61070;50.794;7.054;2022-10-31T12:09:58;101132.13;;;16.53;84.05
72925;BME280;61070;50.794;7.054;2022-10-31T12:12:33;101131.91;;;16.61;83.51
72925;BME280;61070;50.794;7.054;2022-10-31T12:21:01;101111.63;;;16.83;81.32
72925;BME280;61070;50.794;7.054;2022-10-31T12:23:45;101103.66;;;16.82;81.30
72925;BME280;61070;50.794;7.054;2022-10-31T12:26:42;101103.66;;;16.82;82.19
72925;BME280;61070;50.794;7.054;2022-10-31T12:32:16;101099.72;;;17.22;79.33
72925;BME280;61070;50.794;7.054;2022-10-31T12:34:51;101096.25;;;17.18;79.76
72925;BME280;61070;50.794;7.054;2022-10-31T12:40:53;101070.34;;;17.18;79.75
72925;BME280;61070;50.794;7.054;2022-10-31T12:46:25;101060.09;;;17.31;80.26
72925;BME280;61070;50.794;7.054;2022-10-31T12:51:40;101052.03;;;17.33;80.33
72925;BME280;61070;50.794;7.054;2022-10-31T12:54:29;101045.53;;;17.40;79.09
72925;BME280;61070;50.794;7.054;2022-10-31T12:57:17;101035.03;;;17.34;80.09
72925;BME280;61070;50.794;7.054;2022-10-31T12:59:51;101019.56;;;17.42;79.83
72925;BME280;61070;50.794;7.054;2022-10-31T13:02:27;101017.75;;;17.42;80.28
72925;BME280;61070;50.794;7.054;2022-10-31T13:08:04;101004.44;;;17.41;79.61
72925;BME280;61070;50.794;7.054;2022-10-31T13:10:42;100997.31;;;17.40;80.33
72925;BME280;61070;50.794;7.054;2022-10-31T13:13:21;100986.88;;;17.32;79.87
72925;BME280;61070;50.794;7.054;2022-10-31T13:15:51;100997.13;;;17.46;79.48
72925;BME280;61070;50.794;7.054;2022-10-31T13:18:28;100978.44;;;17.44;79.00
72925;BME280;61070;50.794;7.054;2022-10-31T13:20:57;100977.50;;;17.45;79.31
72925;BME280;61070;50.794;7.054;2022-10-31T13:23:29;100979.13;;;17.50;79.43
72925;BME280;61070;50.794;7.054;2022-10-31T13:25:56;100974.06;;;17.65;78.47
72925;BME280;61070;50.794;7.054;2022-10-31T13:28:36;100972.03;;;17.73;78.08
72925;BME280;61070;50.794;7.054;2022-10-31T13:31:04;100973.97;;;17.68;78.08
72925;BME280;61070;50.794;7.054;2022-10-31T13:33:33;100973.09;;;17.68;78.65
72925;BME280;61070;50.794;7.054;2022-10-31T13:36:54;100975.06;;;17.63;78.94
72925;BME280;61070;50.794;7.054;2022-10-31T13:39:03;100969.72;;;17.63;78.57
72925;BME280;61070;50.794;7.054;2022-10-31T13:41:45;100964.72;;;17.52;77.85
72925;BME280;61070;50.794;7.054;2022-10-31T13:46:43;100955.06;;;17.48;77.26
72925;BME280;61070;50.794;7.054;2022-10-31T13:57:16;100957.25;;;17.37;77.30